sensor_id;sensor_type;location;lat;lon;timestamp;temperature;humidity
16666;DHT22;8446;50.998;6.250;2024-01-16T00:00:28;0.10;99.90
16666;DHT22;8446;50.998;6.250;2024-01-16T00:03:00;0.00;99.90
16666;DHT22;8446;50.998;6.250;2024-01-16T00:05:32;-0.20;99.90
16666;DHT22;8446;50.998;6.250;2024-01-16T00:08:03;-0.20;99.90
16666;DHT22;8446;50.998;6.250;2024-01-16T00:10:35;-0.30;99.90
16666;DHT22;8446;50.998;6.250;2024-01-16T00:13:07;-0.30;99.90
16666;DHT22;8446;50.998;6.250;2024-01-16T00:15:40;-0.30;99.90
16666;DHT22;8446;50.998;6.250;2024-01-16T00:18:12;-0.30;99.90
16666;DHT22;8446;50.998;6.250;2024-01-16T00:20:44;-0.30;99.90
16666;DHT22;8446;50.998;6.250;2024-01-16T00:23:16;-0.20;99.90
16666;DHT22;8446;50.998;6.250;2024-01-16T00:25:48;-0.20;99.90
16666;DHT22;8446;50.998;6.250;2024-01-16T00:28:19;-0.10;99.90
16666;DHT22;8446;50.998;6.250;2024-01-16T00:30:52;0.00;99.90
16666;DHT22;8446;50.998;6.250;2024-01-16T00:33:24;0.00;99.90
16666;DHT22;8446;50.998;6.250;2024-01-16T00:35:57;0.10;99.90
16666;DHT22;8446;50.998;6.250;2024-01-16T00:38:29;0.20;99.90
16666;DHT22;8446;50.998;6.250;2024-01-16T00:41:04;0.20;99.90
16666;DHT22;8446;50.998;6.250;2024-01-16T00:43:37;0.20;99.90
16666;DHT22;8446;50.998;6.250;2024-01-16T00:46:10;0.30;99.90
16666;DHT22;8446;50.998;6.250;2024-01-16T00:48:41;0.20;99.90
16666;DHT22;8446;50.998;6.250;2024-01-16T00:51:13;0.20;99.90
16666;DHT22;8446;50.998;6.250;2024-01-16T00:53:45;0.20;99.90
16666;DHT22;8446;50.998;6.250;2024-01-16T00:56:17;0.20;99.90
16666;DHT22;8446;50.998;6.250;2024-01-16T00:58:49;0.10;99.90
16666;DHT22;8446;50.998;6.250;2024-01-16T01:01:23;0.10;99.90
16666;DHT22;8446;50.998;6.250;2024-01-16T01:03:55;0.10;99.90
16666;DHT22;8446;50.998;6.250;2024-01-16T01:06:27;0.20;99.90
16666;DHT22;8446;50.998;6.250;2024-01-16T01:08:58;0.20;99.90
16666;DHT22;8446;50.998;6.250;2024-01-16T01:11:30;0.20;99.90
16666;DHT22;8446;50.998;6.250;2024-01-16T01:14:02;0.20;99.90
16666;DHT22;8446;50.998;6.250;2024-01-16T01:16:35;0.10;99.90
16666;DHT22;8446;50.998;6.250;2024-01-16T01:19:06;0.10;99.90
16666;DHT22;8446;50.998;6.250;2024-01-16T01:21:38;0.10;99.90
16666;DHT22;8446;50.998;6.250;2024-01-16T01:24:09;0.10;99.90
16666;DHT22;8446;50.998;6.250;2024-01-16T01:26:43;0.10;99.90
16666;DHT22;8446;50.998;6.250;2024-01-16T01:29:14;0.10;99.90
16666;DHT22;8446;50.998;6.250;2024-01-16T01:31:49;0.10;99.90
16666;DHT22;8446;50.998;6.250;2024-01-16T01:34:20;0.10;99.90
16666;DHT22;8446;50.998;6.250;2024-01-16T01:36:52;0.10;99.90
16666;DHT22;8446;50.998;6.250;2024-01-16T01:39:24;0.10;99.90
16666;DHT22;8446;50.998;6.250;2024-01-16T01:41:56;0.10;99.90
16666;DHT22;8446;50.998;6.250;2024-01-16T01:44:28;0.10;99.90
16666;DHT22;8446;50.998;6.250;2024-01-16T01:47:01;0.20;99.90
16666;DHT22;8446;50.998;6.250;2024-01-16T01:49:33;0.20;99.90
16666;DHT22;8446;50.998;6.250;2024-01-16T01:52:05;0.20;99.90
16666;DHT22;8446;50.998;6.250;2024-01-16T01:54:38;0.20;99.90
16666;DHT22;8446;50.998;6.250;2024-01-16T01:57:09;0.20;99.90
16666;DHT22;8446;50.998;6.250;2024-01-16T01:59:41;0.30;99.90
16666;DHT22;8446;50.998;6.250;2024-01-16T02:02:15;0.30;99.90
16666;DHT22;8446;50.998;6.250;2024-01-16T02:04:47;0.20;99.90
16666;DHT22;8446;50.998;6.250;2024-01-16T02:07:19;0.30;99.90
16666;DHT22;8446;50.998;6.250;2024-01-16T02:09:51;0.30;99.90
16666;DHT22;8446;50.998;6.250;2024-01-16T02:12:23;0.30;99.90
16666;DHT22;8446;50.998;6.250;2024-01-16T02:14:55;0.20;99.90
16666;DHT22;8446;50.998;6.250;2024-01-16T02:17:28;0.20;99.90
16666;DHT22;8446;50.998;6.250;2024-01-16T02:20:00;0.20;99.90
16666;DHT22;8446;50.998;6.250;2024-01-16T02:22:31;0.20;99.90
16666;DHT22;8446;50.998;6.250;2024-01-16T02:25:06;0.20;99.90
16666;DHT22;8446;50.998;6.250;2024-01-16T02:27:38;0.20;99.90
16666;DHT22;8446;50.998;6.250;2024-01-16T02:30:10;0.20;99.90
16666;DHT22;8446;50.998;6.250;2024-01-16T02:32:42;0.20;99.90
16666;DHT22;8446;50.998;6.250;2024-01-16T02:35:14;0.20;99.90
16666;DHT22;8446;50.998;6.250;2024-01-16T02:37:45;0.20;99.90
16666;DHT22;8446;50.998;6.250;2024-01-16T02:40:18;0.20;99.90
16666;DHT22;8446;50.998;6.250;2024-01-16T02:42:50;0.20;99.90
16666;DHT22;8446;50.998;6.250;2024-01-16T02:45:22;0.20;99.90
16666;DHT22;8446;50.998;6.250;2024-01-16T02:47:54;0.20;99.90
16666;DHT22;8446;50.998;6.250;2024-01-16T02:50:26;0.20;99.90
16666;DHT22;8446;50.998;6.250;2024-01-16T02:52:58;0.20;99.90
16666;DHT22;8446;50.998;6.250;2024-01-16T02:55:31;0.20;99.90
16666;DHT22;8446;50.998;6.250;2024-01-16T02:58:03;0.20;99.90
16666;DHT22;8446;50.998;6.250;2024-01-16T03:00:35;0.10;99.90
16666;DHT22;8446;50.998;6.250;2024-01-16T03:03:08;0.10;99.90
16666;DHT22;8446;50.998;6.250;2024-01-16T03:05:39;0.10;99.90
16666;DHT22;8446;50.998;6.250;2024-01-16T03:08:11;0.10;99.90
16666;DHT22;8446;50.998;6.250;2024-01-16T03:10:44;0.00;99.90
16666;DHT22;8446;50.998;6.250;2024-01-16T03:13:16;0.00;99.90
16666;DHT22;8446;50.998;6.250;2024-01-16T03:15:48;0.00;99.90
16666;DHT22;8446;50.998;6.250;2024-01-16T03:18:19;0.00;99.90
16666;DHT22;8446;50.998;6.250;2024-01-16T03:20:51;0.00;99.90
16666;DHT22;8446;50.998;6.250;2024-01-16T03:23:23;0.00;99.90
16666;DHT22;8446;50.998;6.250;2024-01-16T03:25:56;0.10;99.90
16666;DHT22;8446;50.998;6.250;2024-01-16T03:28:28;0.00;99.90
16666;DHT22;8446;50.998;6.250;2024-01-16T03:31:00;0.00;99.90
16666;DHT22;8446;50.998;6.250;2024-01-16T03:33:33;0.00;99.90
16666;DHT22;8446;50.998;6.250;2024-01-16T03:36:06;0.00;99.90
16666;DHT22;8446;50.998;6.250;2024-01-16T03:38:38;0.00;99.90
16666;DHT22;8446;50.998;6.250;2024-01-16T03:41:12;-0.10;99.90
16666;DHT22;8446;50.998;6.250;2024-01-16T03:43:43;-0.10;99.90
16666;DHT22;8446;50.998;6.250;2024-01-16T03:46:15;-0.10;99.90
16666;DHT22;8446;50.998;6.250;2024-01-16T03:48:47;-0.10;99.90
16666;DHT22;8446;50.998;6.250;2024-01-16T03:51:19;-0.10;99.90
16666;DHT22;8446;50.998;6.250;2024-01-16T03:53:51;-0.10;99.90
16666;DHT22;8446;50.998;6.250;2024-01-16T03:56:24;-0.10;99.90
16666;DHT22;8446;50.998;6.250;2024-01-16T03:58:55;-0.10;99.90
16666;DHT22;8446;50.998;6.250;2024-01-16T04:01:30;-0.10;99.90
16666;DHT22;8446;50.998;6.250;2024-01-16T04:04:03;-0.10;99.90
16666;DHT22;8446;50.998;6.250;2024-01-16T04:06:37;-0.10;99.90
16666;DHT22;8446;50.998;6.250;2024-01-16T04:09:09;-0.20;99.90
16666;DHT22;8446;50.998;6.250;2024-01-16T04:11:42;-0.20;99.90
16666;DHT22;8446;50.998;6.250;2024-01-16T04:14:13;-0.30;99.90
16666;DHT22;8446;50.998;6.250;2024-01-16T04:16:45;-0.30;99.90
16666;DHT22;8446;50.998;6.250;2024-01-16T04:19:17;-0.30;99.90
16666;DHT22;8446;50.998;6.250;2024-01-16T04:21:49;-0.30;99.90
16666;DHT22;8446;50.998;6.250;2024-01-16T04:24:20;-0.30;99.90
16666;DHT22;8446;50.998;6.250;2024-01-16T04:26:53;-0.30;99.90
16666;DHT22;8446;50.998;6.250;2024-01-16T04:29:25;-0.30;99.90
16666;DHT22;8446;50.998;6.250;2024-01-16T04:31:57;-0.30;99.90
16666;DHT22;8446;50.998;6.250;2024-01-16T04:34:29;-0.30;99.90
16666;DHT22;8446;50.998;6.250;2024-01-16T04:37:00;-0.30;99.90
16666;DHT22;8446;50.998;6.250;2024-01-16T04:39:32;-0.30;99.90
16666;DHT22;8446;50.998;6.250;2024-01-16T04:42:05;-0.30;99.90
16666;DHT22;8446;50.998;6.250;2024-01-16T04:44:37;-0.20;99.90
16666;DHT22;8446;50.998;6.250;2024-01-16T04:47:09;-0.30;99.90
16666;DHT22;8446;50.998;6.250;2024-01-16T04:49:41;-0.30;99.90
16666;DHT22;8446;50.998;6.250;2024-01-16T04:52:13;-0.20;99.90
16666;DHT22;8446;50.998;6.250;2024-01-16T04:54:46;-0.20;99.90
16666;DHT22;8446;50.998;6.250;2024-01-16T04:57:19;-0.20;99.90
16666;DHT22;8446;50.998;6.250;2024-01-16T04:59:50;-0.10;99.90
16666;DHT22;8446;50.998;6.250;2024-01-16T05:02:22;-0.10;99.90
16666;DHT22;8446;50.998;6.250;2024-01-16T05:04:54;-0.10;99.90
16666;DHT22;8446;50.998;6.250;2024-01-16T05:07:25;-0.10;99.90
16666;DHT22;8446;50.998;6.250;2024-01-16T05:09:57;-0.10;99.90
16666;DHT22;8446;50.998;6.250;2024-01-16T05:12:30;-0.10;99.90
16666;DHT22;8446;50.998;6.250;2024-01-16T05:15:03;-0.20;99.90
16666;DHT22;8446;50.998;6.250;2024-01-16T05:17:34;-0.30;99.90
16666;DHT22;8446;50.998;6.250;2024-01-16T05:20:07;-0.30;99.90
16666;DHT22;8446;50.998;6.250;2024-01-16T05:22:40;-0.30;99.90
16666;DHT22;8446;50.998;6.250;2024-01-16T05:25:12;-0.30;99.90
16666;DHT22;8446;50.998;6.250;2024-01-16T05:27:45;-0.30;99.90
16666;DHT22;8446;50.998;6.250;2024-01-16T05:30:17;-0.30;99.90
16666;DHT22;8446;50.998;6.250;2024-01-16T05:32:48;-0.30;99.90
16666;DHT22;8446;50.998;6.250;2024-01-16T05:35:20;-0.30;99.90
16666;DHT22;8446;50.998;6.250;2024-01-16T05:37:52;-0.30;99.90
16666;DHT22;8446;50.998;6.250;2024-01-16T05:40:23;-0.20;99.90
16666;DHT22;8446;50.998;6.250;2024-01-16T05:42:57;-0.20;99.90
16666;DHT22;8446;50.998;6.250;2024-01-16T05:45:28;-0.20;99.90
16666;DHT22;8446;50.998;6.250;2024-01-16T05:48:00;-0.20;99.90
16666;DHT22;8446;50.998;6.250;2024-01-16T05:50:32;-0.30;99.90
16666;DHT22;8446;50.998;6.250;2024-01-16T05:53:03;-0.20;99.90
16666;DHT22;8446;50.998;6.250;2024-01-16T05:55:35;-0.30;99.90
16666;DHT22;8446;50.998;6.250;2024-01-16T05:58:08;-0.30;99.90
16666;DHT22;8446;50.998;6.250;2024-01-16T06:00:40;-0.30;99.90
16666;DHT22;8446;50.998;6.250;2024-01-16T06:03:12;-0.30;99.90
16666;DHT22;8446;50.998;6.250;2024-01-16T06:05:43;-0.30;99.90
16666;DHT22;8446;50.998;6.250;2024-01-16T06:08:15;-0.30;99.90
16666;DHT22;8446;50.998;6.250;2024-01-16T06:10:47;-0.30;99.90
16666;DHT22;8446;50.998;6.250;2024-01-16T06:13:21;-0.20;99.90
16666;DHT22;8446;50.998;6.250;2024-01-16T06:15:53;-0.20;99.90
16666;DHT22;8446;50.998;6.250;2024-01-16T06:18:25;-0.20;99.90
16666;DHT22;8446;50.998;6.250;2024-01-16T06:20:56;-0.20;99.90
16666;DHT22;8446;50.998;6.250;2024-01-16T06:23:28;-0.20;99.90
16666;DHT22;8446;50.998;6.250;2024-01-16T06:26:00;-0.20;99.90
16666;DHT22;8446;50.998;6.250;2024-01-16T06:28:33;-0.30;99.90
16666;DHT22;8446;50.998;6.250;2024-01-16T06:31:05;-0.30;99.90
16666;DHT22;8446;50.998;6.250;2024-01-16T06:33:37;-0.30;99.90
16666;DHT22;8446;50.998;6.250;2024-01-16T06:36:08;-0.20;99.90
16666;DHT22;8446;50.998;6.250;2024-01-16T06:38:41;-0.20;99.90
16666;DHT22;8446;50.998;6.250;2024-01-16T06:41:12;-0.20;99.90
16666;DHT22;8446;50.998;6.250;2024-01-16T06:43:45;-0.30;99.90
16666;DHT22;8446;50.998;6.250;2024-01-16T06:46:17;-0.40;99.90
16666;DHT22;8446;50.998;6.250;2024-01-16T06:48:49;-0.50;99.90
16666;DHT22;8446;50.998;6.250;2024-01-16T06:51:21;-0.60;99.90
16666;DHT22;8446;50.998;6.250;2024-01-16T06:53:52;-0.80;99.90
16666;DHT22;8446;50.998;6.250;2024-01-16T06:56:24;-1.00;99.90
16666;DHT22;8446;50.998;6.250;2024-01-16T06:58:57;-1.10;99.90
16666;DHT22;8446;50.998;6.250;2024-01-16T07:01:29;-1.20;99.90
16666;DHT22;8446;50.998;6.250;2024-01-16T07:04:01;-1.30;99.90
16666;DHT22;8446;50.998;6.250;2024-01-16T07:06:32;-1.20;99.90
16666;DHT22;8446;50.998;6.250;2024-01-16T07:09:04;-1.20;99.90
16666;DHT22;8446;50.998;6.250;2024-01-16T07:11:37;-1.20;99.90
16666;DHT22;8446;50.998;6.250;2024-01-16T07:14:10;-1.30;99.90
16666;DHT22;8446;50.998;6.250;2024-01-16T07:16:42;-1.30;99.90
16666;DHT22;8446;50.998;6.250;2024-01-16T07:19:14;-1.20;99.90
16666;DHT22;8446;50.998;6.250;2024-01-16T07:21:46;-1.20;99.90
16666;DHT22;8446;50.998;6.250;2024-01-16T07:24:18;-1.30;99.90
16666;DHT22;8446;50.998;6.250;2024-01-16T07:26:50;-1.30;99.90
16666;DHT22;8446;50.998;6.250;2024-01-16T07:29:23;-1.30;99.90
16666;DHT22;8446;50.998;6.250;2024-01-16T07:31:54;-1.30;99.90
16666;DHT22;8446;50.998;6.250;2024-01-16T07:34:26;-1.40;99.90
16666;DHT22;8446;50.998;6.250;2024-01-16T07:36:58;-1.30;99.90
16666;DHT22;8446;50.998;6.250;2024-01-16T07:39:29;-1.40;99.90
16666;DHT22;8446;50.998;6.250;2024-01-16T07:42:01;-1.40;99.90
16666;DHT22;8446;50.998;6.250;2024-01-16T07:44:35;-1.50;99.90
16666;DHT22;8446;50.998;6.250;2024-01-16T07:47:06;-1.60;99.90
16666;DHT22;8446;50.998;6.250;2024-01-16T07:49:38;-1.70;99.90
16666;DHT22;8446;50.998;6.250;2024-01-16T07:52:10;-1.70;99.90
16666;DHT22;8446;50.998;6.250;2024-01-16T07:54:42;-1.80;99.90
16666;DHT22;8446;50.998;6.250;2024-01-16T07:57:14;-1.80;99.90
16666;DHT22;8446;50.998;6.250;2024-01-16T07:59:47;-1.70;99.90
16666;DHT22;8446;50.998;6.250;2024-01-16T08:02:19;-1.70;99.90
16666;DHT22;8446;50.998;6.250;2024-01-16T08:04:50;-1.80;99.90
16666;DHT22;8446;50.998;6.250;2024-01-16T08:07:22;-1.90;99.90
16666;DHT22;8446;50.998;6.250;2024-01-16T08:09:54;-1.90;99.90
16666;DHT22;8446;50.998;6.250;2024-01-16T08:12:26;-2.00;99.90
16666;DHT22;8446;50.998;6.250;2024-01-16T08:14:59;-1.90;99.90
16666;DHT22;8446;50.998;6.250;2024-01-16T08:17:31;-1.90;99.90
16666;DHT22;8446;50.998;6.250;2024-01-16T08:20:03;-1.70;99.90
16666;DHT22;8446;50.998;6.250;2024-01-16T08:22:35;-1.80;99.90
16666;DHT22;8446;50.998;6.250;2024-01-16T08:25:07;-1.90;99.90
16666;DHT22;8446;50.998;6.250;2024-01-16T08:27:39;-1.90;99.90
16666;DHT22;8446;50.998;6.250;2024-01-16T08:30:12;-1.90;99.90
16666;DHT22;8446;50.998;6.250;2024-01-16T08:32:44;-2.00;99.90
16666;DHT22;8446;50.998;6.250;2024-01-16T08:35:16;-1.90;99.90
16666;DHT22;8446;50.998;6.250;2024-01-16T08:37:48;-1.70;99.90
16666;DHT22;8446;50.998;6.250;2024-01-16T08:40:20;-1.50;99.90
16666;DHT22;8446;50.998;6.250;2024-01-16T08:42:51;-1.60;99.90
16666;DHT22;8446;50.998;6.250;2024-01-16T08:45:26;-1.60;99.90
16666;DHT22;8446;50.998;6.250;2024-01-16T08:47:58;-1.50;99.90
16666;DHT22;8446;50.998;6.250;2024-01-16T08:50:30;-1.40;99.90
16666;DHT22;8446;50.998;6.250;2024-01-16T08:53:02;-1.30;99.90
16666;DHT22;8446;50.998;6.250;2024-01-16T08:55:34;-1.20;99.90
16666;DHT22;8446;50.998;6.250;2024-01-16T08:58:06;-1.10;99.90
16666;DHT22;8446;50.998;6.250;2024-01-16T09:00:39;-1.00;99.90
16666;DHT22;8446;50.998;6.250;2024-01-16T09:03:12;-0.90;99.90
16666;DHT22;8446;50.998;6.250;2024-01-16T09:05:44;-0.90;99.90
16666;DHT22;8446;50.998;6.250;2024-01-16T09:08:15;-0.90;99.90
16666;DHT22;8446;50.998;6.250;2024-01-16T09:10:47;-0.80;99.90
16666;DHT22;8446;50.998;6.250;2024-01-16T09:13:19;-0.80;99.90
16666;DHT22;8446;50.998;6.250;2024-01-16T09:15:52;-0.70;99.90
16666;DHT22;8446;50.998;6.250;2024-01-16T09:18:24;-0.70;99.90
16666;DHT22;8446;50.998;6.250;2024-01-16T09:20:56;-0.60;99.90
16666;DHT22;8446;50.998;6.250;2024-01-16T09:23:28;-0.60;99.90
16666;DHT22;8446;50.998;6.250;2024-01-16T09:26:00;-0.60;99.90
16666;DHT22;8446;50.998;6.250;2024-01-16T09:28:32;-0.60;99.90
16666;DHT22;8446;50.998;6.250;2024-01-16T09:31:05;-0.60;99.90
16666;DHT22;8446;50.998;6.250;2024-01-16T09:33:37;-0.60;99.90
16666;DHT22;8446;50.998;6.250;2024-01-16T09:36:09;-0.60;99.90
16666;DHT22;8446;50.998;6.250;2024-01-16T09:38:40;-0.60;99.90
16666;DHT22;8446;50.998;6.250;2024-01-16T09:41:13;-0.60;99.90
16666;DHT22;8446;50.998;6.250;2024-01-16T09:43:46;-0.50;99.90
16666;DHT22;8446;50.998;6.250;2024-01-16T09:46:22;-0.60;99.90
16666;DHT22;8446;50.998;6.250;2024-01-16T09:48:55;-0.60;99.90
16666;DHT22;8446;50.998;6.250;2024-01-16T09:51:27;-0.70;99.90
16666;DHT22;8446;50.998;6.250;2024-01-16T09:53:59;-0.70;99.90
16666;DHT22;8446;50.998;6.250;2024-01-16T09:56:32;-0.80;99.90
16666;DHT22;8446;50.998;6.250;2024-01-16T09:59:06;-0.70;99.90
16666;DHT22;8446;50.998;6.250;2024-01-16T10:01:41;-0.70;99.90
16666;DHT22;8446;50.998;6.250;2024-01-16T10:04:13;-0.70;99.90
16666;DHT22;8446;50.998;6.250;2024-01-16T10:06:45;-0.60;99.90
16666;DHT22;8446;50.998;6.250;2024-01-16T10:09:17;-0.50;99.90
16666;DHT22;8446;50.998;6.250;2024-01-16T10:11:49;-0.50;99.90
16666;DHT22;8446;50.998;6.250;2024-01-16T10:14:21;-0.50;99.90
16666;DHT22;8446;50.998;6.250;2024-01-16T10:17:02;-0.60;99.90
16666;DHT22;8446;50.998;6.250;2024-01-16T10:19:48;-0.60;99.90
16666;DHT22;8446;50.998;6.250;2024-01-16T10:22:20;-0.60;99.90
16666;DHT22;8446;50.998;6.250;2024-01-16T10:25:04;-0.70;99.90
16666;DHT22;8446;50.998;6.250;2024-01-16T10:27:39;-0.70;99.90
16666;DHT22;8446;50.998;6.250;2024-01-16T10:30:11;-0.60;99.90
16666;DHT22;8446;50.998;6.250;2024-01-16T10:32:44;-0.40;99.90
16666;DHT22;8446;50.998;6.250;2024-01-16T10:35:17;-0.30;99.90
16666;DHT22;8446;50.998;6.250;2024-01-16T10:37:52;-0.30;99.90
16666;DHT22;8446;50.998;6.250;2024-01-16T10:40:24;-0.10;99.90
16666;DHT22;8446;50.998;6.250;2024-01-16T10:42:58;-0.10;99.90
16666;DHT22;8446;50.998;6.250;2024-01-16T10:45:30;-0.10;99.90
16666;DHT22;8446;50.998;6.250;2024-01-16T10:48:04;0.00;99.90
16666;DHT22;8446;50.998;6.250;2024-01-16T10:50:38;0.00;99.90
16666;DHT22;8446;50.998;6.250;2024-01-16T10:53:12;0.10;99.90
16666;DHT22;8446;50.998;6.250;2024-01-16T10:55:52;0.10;99.90
16666;DHT22;8446;50.998;6.250;2024-01-16T10:58:24;0.30;99.90
16666;DHT22;8446;50.998;6.250;2024-01-16T11:00:57;0.40;99.90
16666;DHT22;8446;50.998;6.250;2024-01-16T11:03:40;0.40;99.90
16666;DHT22;8446;50.998;6.250;2024-01-16T11:06:15;0.50;99.90
16666;DHT22;8446;50.998;6.250;2024-01-16T11:08:48;0.50;99.90
16666;DHT22;8446;50.998;6.250;2024-01-16T11:11:20;0.60;99.90
16666;DHT22;8446;50.998;6.250;2024-01-16T11:13:54;0.70;99.90
16666;DHT22;8446;50.998;6.250;2024-01-16T11:16:28;0.80;99.90
16666;DHT22;8446;50.998;6.250;2024-01-16T11:19:04;0.80;99.90
16666;DHT22;8446;50.998;6.250;2024-01-16T11:21:39;0.60;99.90
16666;DHT22;8446;50.998;6.250;2024-01-16T11:24:12;0.70;99.90
16666;DHT22;8446;50.998;6.250;2024-01-16T11:26:44;0.70;99.90
16666;DHT22;8446;50.998;6.250;2024-01-16T11:29:35;0.70;99.90
16666;DHT22;8446;50.998;6.250;2024-01-16T11:32:07;0.60;99.90
16666;DHT22;8446;50.998;6.250;2024-01-16T11:34:53;0.70;99.90
16666;DHT22;8446;50.998;6.250;2024-01-16T11:37:29;0.60;99.90
16666;DHT22;8446;50.998;6.250;2024-01-16T11:40:22;0.70;99.90
16666;DHT22;8446;50.998;6.250;2024-01-16T11:42:55;0.60;99.90
16666;DHT22;8446;50.998;6.250;2024-01-16T11:45:49;0.80;99.90
16666;DHT22;8446;50.998;6.250;2024-01-16T11:48:21;0.90;99.90
16666;DHT22;8446;50.998;6.250;2024-01-16T11:50:55;1.00;99.90
16666;DHT22;8446;50.998;6.250;2024-01-16T11:53:34;1.00;99.90
16666;DHT22;8446;50.998;6.250;2024-01-16T11:56:37;0.90;99.90
16666;DHT22;8446;50.998;6.250;2024-01-16T11:59:42;0.90;99.90
16666;DHT22;8446;50.998;6.250;2024-01-16T12:02:21;0.80;99.90
16666;DHT22;8446;50.998;6.250;2024-01-16T12:04:55;0.80;99.90
16666;DHT22;8446;50.998;6.250;2024-01-16T12:07:28;0.90;99.90
16666;DHT22;8446;50.998;6.250;2024-01-16T12:10:00;0.70;99.90
16666;DHT22;8446;50.998;6.250;2024-01-16T12:12:32;0.70;99.90
16666;DHT22;8446;50.998;6.250;2024-01-16T12:15:05;0.80;99.90
16666;DHT22;8446;50.998;6.250;2024-01-16T12:17:37;0.60;99.90
16666;DHT22;8446;50.998;6.250;2024-01-16T12:20:16;0.80;99.90
16666;DHT22;8446;50.998;6.250;2024-01-16T12:22:59;0.90;99.90
16666;DHT22;8446;50.998;6.250;2024-01-16T12:25:32;0.80;99.90
16666;DHT22;8446;50.998;6.250;2024-01-16T12:28:06;0.80;99.90
16666;DHT22;8446;50.998;6.250;2024-01-16T12:30:38;0.80;99.90
16666;DHT22;8446;50.998;6.250;2024-01-16T12:33:11;0.80;99.90
16666;DHT22;8446;50.998;6.250;2024-01-16T12:35:43;0.90;99.90
16666;DHT22;8446;50.998;6.250;2024-01-16T12:38:17;0.90;99.90
16666;DHT22;8446;50.998;6.250;2024-01-16T12:40:49;1.00;99.90
16666;DHT22;8446;50.998;6.250;2024-01-16T12:43:22;1.10;99.90
16666;DHT22;8446;50.998;6.250;2024-01-16T12:45:55;1.10;99.90
16666;DHT22;8446;50.998;6.250;2024-01-16T12:48:27;1.00;99.90
16666;DHT22;8446;50.998;6.250;2024-01-16T12:50:59;1.00;99.90
16666;DHT22;8446;50.998;6.250;2024-01-16T12:53:33;0.90;99.90
16666;DHT22;8446;50.998;6.250;2024-01-16T12:56:07;0.80;99.90
16666;DHT22;8446;50.998;6.250;2024-01-16T12:58:40;1.00;99.90
16666;DHT22;8446;50.998;6.250;2024-01-16T13:01:22;1.00;99.90
16666;DHT22;8446;50.998;6.250;2024-01-16T13:03:54;1.00;99.90
16666;DHT22;8446;50.998;6.250;2024-01-16T13:06:26;1.00;99.90
16666;DHT22;8446;50.998;6.250;2024-01-16T13:09:07;0.90;99.90
16666;DHT22;8446;50.998;6.250;2024-01-16T13:11:48;0.90;99.90
16666;DHT22;8446;50.998;6.250;2024-01-16T13:14:21;0.90;99.90
16666;DHT22;8446;50.998;6.250;2024-01-16T13:16:53;0.80;99.90
16666;DHT22;8446;50.998;6.250;2024-01-16T13:19:26;0.90;99.90
16666;DHT22;8446;50.998;6.250;2024-01-16T13:22:00;1.10;99.90
16666;DHT22;8446;50.998;6.250;2024-01-16T13:24:33;1.00;99.90
16666;DHT22;8446;50.998;6.250;2024-01-16T13:27:06;1.00;99.90
16666;DHT22;8446;50.998;6.250;2024-01-16T13:29:40;1.10;99.90
16666;DHT22;8446;50.998;6.250;2024-01-16T13:32:12;1.30;99.90
16666;DHT22;8446;50.998;6.250;2024-01-16T13:34:44;1.30;99.90
16666;DHT22;8446;50.998;6.250;2024-01-16T13:37:21;1.40;99.90
16666;DHT22;8446;50.998;6.250;2024-01-16T13:39:54;1.00;99.90
16666;DHT22;8446;50.998;6.250;2024-01-16T13:42:26;1.00;99.90
16666;DHT22;8446;50.998;6.250;2024-01-16T13:44:58;1.10;99.90
16666;DHT22;8446;50.998;6.250;2024-01-16T13:47:30;1.00;99.90
16666;DHT22;8446;50.998;6.250;2024-01-16T13:50:01;1.00;99.90
16666;DHT22;8446;50.998;6.250;2024-01-16T13:52:35;0.80;99.90
16666;DHT22;8446;50.998;6.250;2024-01-16T13:55:09;0.70;99.90
16666;DHT22;8446;50.998;6.250;2024-01-16T13:57:41;0.70;99.90
16666;DHT22;8446;50.998;6.250;2024-01-16T14:00:14;0.80;99.90
16666;DHT22;8446;50.998;6.250;2024-01-16T14:02:48;0.80;99.90
16666;DHT22;8446;50.998;6.250;2024-01-16T14:05:20;0.70;99.90
16666;DHT22;8446;50.998;6.250;2024-01-16T14:07:55;0.90;99.90
16666;DHT22;8446;50.998;6.250;2024-01-16T14:10:28;0.70;99.90
16666;DHT22;8446;50.998;6.250;2024-01-16T14:13:00;0.70;99.90
16666;DHT22;8446;50.998;6.250;2024-01-16T14:15:32;0.70;99.90
16666;DHT22;8446;50.998;6.250;2024-01-16T14:18:04;0.70;99.90
16666;DHT22;8446;50.998;6.250;2024-01-16T14:20:35;0.60;99.90
16666;DHT22;8446;50.998;6.250;2024-01-16T14:23:07;0.60;99.90
16666;DHT22;8446;50.998;6.250;2024-01-16T14:25:40;0.70;99.90
16666;DHT22;8446;50.998;6.250;2024-01-16T14:28:12;0.80;99.90
16666;DHT22;8446;50.998;6.250;2024-01-16T14:30:44;0.90;99.90
16666;DHT22;8446;50.998;6.250;2024-01-16T14:33:15;0.70;99.90
16666;DHT22;8446;50.998;6.250;2024-01-16T14:35:47;0.60;99.90
16666;DHT22;8446;50.998;6.250;2024-01-16T14:38:19;0.50;99.90
16666;DHT22;8446;50.998;6.250;2024-01-16T14:40:52;0.60;99.90
16666;DHT22;8446;50.998;6.250;2024-01-16T14:43:26;0.60;99.90
16666;DHT22;8446;50.998;6.250;2024-01-16T14:45:58;0.50;99.90
16666;DHT22;8446;50.998;6.250;2024-01-16T14:48:29;0.50;99.90
16666;DHT22;8446;50.998;6.250;2024-01-16T14:51:02;0.20;99.90
16666;DHT22;8446;50.998;6.250;2024-01-16T14:53:33;0.20;99.90
16666;DHT22;8446;50.998;6.250;2024-01-16T14:56:06;0.10;99.90
16666;DHT22;8446;50.998;6.250;2024-01-16T14:58:39;0.10;99.90
16666;DHT22;8446;50.998;6.250;2024-01-16T15:01:11;0.10;99.90
16666;DHT22;8446;50.998;6.250;2024-01-16T15:03:43;0.20;99.90
16666;DHT22;8446;50.998;6.250;2024-01-16T15:06:14;-0.10;99.90
16666;DHT22;8446;50.998;6.250;2024-01-16T15:08:47;-0.10;99.90
16666;DHT22;8446;50.998;6.250;2024-01-16T15:11:20;-0.30;99.90
16666;DHT22;8446;50.998;6.250;2024-01-16T15:13:52;-0.50;99.90
16666;DHT22;8446;50.998;6.250;2024-01-16T15:16:27;-0.50;99.90
16666;DHT22;8446;50.998;6.250;2024-01-16T15:19:00;-0.50;99.90
16666;DHT22;8446;50.998;6.250;2024-01-16T15:21:32;-0.60;99.90
16666;DHT22;8446;50.998;6.250;2024-01-16T15:24:03;-0.90;99.90
16666;DHT22;8446;50.998;6.250;2024-01-16T15:26:37;-1.20;99.90
16666;DHT22;8446;50.998;6.250;2024-01-16T15:29:08;-1.30;99.90
16666;DHT22;8446;50.998;6.250;2024-01-16T15:31:40;-1.50;99.90
16666;DHT22;8446;50.998;6.250;2024-01-16T15:34:12;-1.40;99.90
16666;DHT22;8446;50.998;6.250;2024-01-16T15:36:44;-1.40;99.90
16666;DHT22;8446;50.998;6.250;2024-01-16T15:39:16;-1.60;99.90
16666;DHT22;8446;50.998;6.250;2024-01-16T15:41:49;-1.70;99.90
16666;DHT22;8446;50.998;6.250;2024-01-16T15:44:21;-1.70;99.90
16666;DHT22;8446;50.998;6.250;2024-01-16T15:46:56;-1.80;99.90
16666;DHT22;8446;50.998;6.250;2024-01-16T15:49:30;-1.90;99.90
16666;DHT22;8446;50.998;6.250;2024-01-16T15:52:03;-1.90;99.90
16666;DHT22;8446;50.998;6.250;2024-01-16T15:54:34;-2.00;99.90
16666;DHT22;8446;50.998;6.250;2024-01-16T15:57:07;-2.20;99.90
16666;DHT22;8446;50.998;6.250;2024-01-16T15:59:40;-2.20;99.90
16666;DHT22;8446;50.998;6.250;2024-01-16T16:02:12;-2.10;99.90
16666;DHT22;8446;50.998;6.250;2024-01-16T16:04:45;-2.30;99.90
16666;DHT22;8446;50.998;6.250;2024-01-16T16:07:17;-2.30;99.90
16666;DHT22;8446;50.998;6.250;2024-01-16T16:09:49;-2.40;99.90
16666;DHT22;8446;50.998;6.250;2024-01-16T16:12:22;-2.40;99.90
16666;DHT22;8446;50.998;6.250;2024-01-16T16:14:54;-2.40;99.90
16666;DHT22;8446;50.998;6.250;2024-01-16T16:17:27;-3.20;99.90
16666;DHT22;8446;50.998;6.250;2024-01-16T16:19:58;-3.70;99.90
16666;DHT22;8446;50.998;6.250;2024-01-16T16:22:30;-3.70;99.90
16666;DHT22;8446;50.998;6.250;2024-01-16T16:25:02;-3.70;99.90
16666;DHT22;8446;50.998;6.250;2024-01-16T16:27:36;-3.50;99.90